sensor_id;sensor_type;location;lat;lon;timestamp;pressure;altitude;pressure_sealevel;temperature;humidity
63493;BME280;49638;47.526;10.028;2022-07-30T00:01:13;91931.34;;;14.12;91.60
63493;BME280;49638;47.526;10.028;2022-07-30T00:04:13;91927.63;;;14.08;91.50
63493;BME280;49638;47.526;10.028;2022-07-30T00:07:14;91919.91;;;14.07;91.92
63493;BME280;49638;47.526;10.028;2022-07-30T00:10:14;91934.81;;;14.13;92.02
63493;BME280;49638;47.526;10.028;2022-07-30T00:13:14;91934.28;;;14.16;91.80
63493;BME280;49638;47.526;10.028;2022-07-30T00:16:15;91933.78;;;14.19;92.27
63493;BME280;49638;47.526;10.028;2022-07-30T00:19:15;91922.06;;;14.15;91.93
63493;BME280;49638;47.526;10.028;2022-07-30T00:22:15;91913.53;;;14.08;91.95
63493;BME280;49638;47.526;10.028;2022-07-30T00:25:17;91923.13;;;14.14;91.72
63493;BME280;49638;47.526;10.028;2022-07-30T00:28:17;91929.25;;;14.19;92.14
63493;BME280;49638;47.526;10.028;2022-07-30T00:31:17;91934.56;;;14.19;92.21
63493;BME280;49638;47.526;10.028;2022-07-30T00:34:18;91924.47;;;14.16;91.91
63493;BME280;49638;47.526;10.028;2022-07-30T00:37:18;91939.38;;;14.23;92.20
63493;BME280;49638;47.526;10.028;2022-07-30T00:40:18;91930.09;;;14.20;92.38
63493;BME280;49638;47.526;10.028;2022-07-30T00:43:19;91931.16;;;14.24;92.24
63493;BME280;49638;47.526;10.028;2022-07-30T00:46:19;91934.06;;;14.23;92.11
63493;BME280;49638;47.526;10.028;2022-07-30T00:49:20;91938.34;;;14.24;92.16
63493;BME280;49638;47.526;10.028;2022-07-30T00:52:21;91936.72;;;14.23;91.85
63493;BME280;49638;47.526;10.028;2022-07-30T00:55:21;91929.25;;;14.14;92.00
63493;BME280;49638;47.526;10.028;2022-07-30T00:58:21;91936.16;;;14.15;91.81
63493;BME280;49638;47.526;10.028;2022-07-30T01:01:21;91934.00;;;14.07;91.95
63493;BME280;49638;47.526;10.028;2022-07-30T01:04:22;91932.41;;;14.11;91.71
63493;BME280;49638;47.526;10.028;2022-07-30T01:07:22;91943.06;;;14.11;91.80
63493;BME280;49638;47.526;10.028;2022-07-30T01:10:23;91921.75;;;14.01;91.66
63493;BME280;49638;47.526;10.028;2022-07-30T01:13:23;91938.25;;;14.08;91.95
63493;BME280;49638;47.526;10.028;2022-07-30T01:16:24;91934.50;;;14.04;92.03
63493;BME280;49638;47.526;10.028;2022-07-30T01:19:27;91918.53;;;13.99;92.32
63493;BME280;49638;47.526;10.028;2022-07-30T01:23:03;91931.63;;;14.11;93.45
63493;BME280;49638;47.526;10.028;2022-07-30T01:26:08;91931.91;;;14.14;92.34
63493;BME280;49638;47.526;10.028;2022-07-30T01:29:12;91931.91;;;14.19;92.73
63493;BME280;49638;47.526;10.028;2022-07-30T01:32:13;91934.06;;;14.23;92.30
63493;BME280;49638;47.526;10.028;2022-07-30T01:35:17;91937.78;;;14.22;92.54
63493;BME280;49638;47.526;10.028;2022-07-30T01:38:20;91938.34;;;14.24;92.16
63493;BME280;49638;47.526;10.028;2022-07-30T01:41:22;91938.06;;;14.25;92.40
63493;BME280;49638;47.526;10.028;2022-07-30T01:44:25;91935.69;;;14.24;92.35
63493;BME280;49638;47.526;10.028;2022-07-30T01:47:26;91935.41;;;14.20;92.27
63493;BME280;49638;47.526;10.028;2022-07-30T01:50:29;91931.38;;;14.17;91.99
63493;BME280;49638;47.526;10.028;2022-07-30T01:53:31;91936.16;;;14.15;92.24
63493;BME280;49638;47.526;10.028;2022-07-30T01:56:34;91934.25;;;14.06;92.00
63493;BME280;49638;47.526;10.028;2022-07-30T01:59:35;91941.19;;;14.07;92.20
63493;BME280;49638;47.526;10.028;2022-07-30T02:02:38;91929.72;;;14.01;92.35
63493;BME280;49638;47.526;10.028;2022-07-30T02:05:42;91929.72;;;14.01;91.84
63493;BME280;49638;47.526;10.028;2022-07-30T02:08:51;91930.78;;;14.00;92.29
63493;BME280;49638;47.526;10.028;2022-07-30T02:11:53;91936.06;;;13.95;91.82
63493;BME280;49638;47.526;10.028;2022-07-30T02:15:22;91944.03;;;13.95;92.00
63493;BME280;49638;47.526;10.028;2022-07-30T02:18:30;91941.38;;;13.95;92.00
63493;BME280;49638;47.526;10.028;2022-07-30T02:21:36;91940.56;;;13.94;91.88
63493;BME280;49638;47.526;10.028;2022-07-30T02:24:40;91942.94;;;13.91;91.79
63493;BME280;49638;47.526;10.028;2022-07-30T02:27:42;91930.16;;;13.88;91.72
63493;BME280;49638;47.526;10.028;2022-07-30T02:30:53;91925.88;;;13.82;91.78
63493;BME280;49638;47.526;10.028;2022-07-30T02:33:57;91925.88;;;13.77;91.74
63493;BME280;49638;47.526;10.028;2022-07-30T02:36:59;91923.72;;;13.73;91.77
63493;BME280;49638;47.526;10.028;2022-07-30T02:40:00;91927.97;;;13.69;92.00
63493;BME280;49638;47.526;10.028;2022-07-30T02:43:00;91926.03;;;13.65;92.10
63493;BME280;49638;47.526;10.028;2022-07-30T02:46:01;91928.19;;;13.68;92.01
63493;BME280;49638;47.526;10.028;2022-07-30T02:49:04;91930.31;;;13.66;91.86
63493;BME280;49638;47.526;10.028;2022-07-30T02:52:07;91929.47;;;13.60;92.09
63493;BME280;49638;47.526;10.028;2022-07-30T02:55:11;91934.28;;;13.63;92.10
63493;BME280;49638;47.526;10.028;2022-07-30T02:58:16;91931.63;;;13.63;92.02
63493;BME280;49638;47.526;10.028;2022-07-30T03:01:20;91931.84;;;13.57;91.93
63493;BME280;49638;47.526;10.028;2022-07-30T03:04:22;91941.63;;;13.51;92.01
63493;BME280;49638;47.526;10.028;2022-07-30T03:07:24;91942.13;;;13.48;92.30
63493;BME280;49638;47.526;10.028;2022-07-30T03:10:26;91949.09;;;13.54;92.39
63493;BME280;49638;47.526;10.028;2022-07-30T03:13:26;91948.03;;;13.55;92.45
63493;BME280;49638;47.526;10.028;2022-07-30T03:16:27;91957.09;;;13.59;92.69
63493;BME280;49638;47.526;10.028;2022-07-30T03:19:31;91956.59;;;13.62;92.49
63493;BME280;49638;47.526;10.028;2022-07-30T03:22:34;91951.78;;;13.59;92.55
63493;BME280;49638;47.526;10.028;2022-07-30T03:25:37;91954.69;;;13.58;92.94
63493;BME280;49638;47.526;10.028;2022-07-30T03:28:39;91950.16;;;13.58;92.94
63493;BME280;49638;47.526;10.028;2022-07-30T03:31:40;91952.59;;;13.60;93.14
63493;BME280;49638;47.526;10.028;2022-07-30T03:34:41;91951.00;;;13.64;93.27
63493;BME280;49638;47.526;10.028;2022-07-30T03:37:42;91971.78;;;13.72;93.31
63493;BME280;49638;47.526;10.028;2022-07-30T03:40:44;91978.19;;;13.76;93.43
63493;BME280;49638;47.526;10.028;2022-07-30T03:43:45;91979.56;;;13.84;93.46
63493;BME280;49638;47.526;10.028;2022-07-30T03:46:47;91979.06;;;13.87;93.47
63493;BME280;49638;47.526;10.028;2022-07-30T03:49:49;91979.06;;;13.87;93.89
63493;BME280;49638;47.526;10.028;2022-07-30T03:52:50;91973.75;;;13.87;93.55
63493;BME280;49638;47.526;10.028;2022-07-30T03:55:53;91977.41;;;13.81;94.22
63493;BME280;49638;47.526;10.028;2022-07-30T03:58:54;91978.19;;;13.76;94.84
63493;BME280;49638;47.526;10.028;2022-07-30T04:01:59;91981.66;;;13.77;95.08
63493;BME280;49638;47.526;10.028;2022-07-30T04:04:59;91982.19;;;13.79;94.52
63493;BME280;49638;47.526;10.028;2022-07-30T04:08:00;91970.47;;;13.75;94.42
63493;BME280;49638;47.526;10.028;2022-07-30T04:11:00;91975.78;;;13.75;94.16
63493;BME280;49638;47.526;10.028;2022-07-30T04:14:01;91980.06;;;13.81;94.30
63493;BME280;49638;47.526;10.028;2022-07-30T04:17:03;91974.25;;;13.84;94.70
63493;BME280;49638;47.526;10.028;2022-07-30T04:23:14;91973.53;;;13.93;95.36
63493;BME280;49638;47.526;10.028;2022-07-30T04:26:15;91973.00;;;13.96;95.28
63493;BME280;49638;47.526;10.028;2022-07-30T04:29:16;91973.31;;;14.00;95.16
63493;BME280;49638;47.526;10.028;2022-07-30T04:32:17;91974.88;;;14.01;95.22
63493;BME280;49638;47.526;10.028;2022-07-30T04:35:26;91986.09;;;14.08;95.67
63493;BME280;49638;47.526;10.028;2022-07-30T04:38:26;91978.66;;;14.10;94.76
63493;BME280;49638;47.526;10.028;2022-07-30T04:41:27;91991.22;;;14.20;95.33
63493;BME280;49638;47.526;10.028;2022-07-30T04:44:27;91985.13;;;14.25;95.12
63493;BME280;49638;47.526;10.028;2022-07-30T04:47:27;91982.19;;;14.26;95.19
63493;BME280;49638;47.526;10.028;2022-07-30T04:50:28;91987.50;;;14.26;95.18
63493;BME280;49638;47.526;10.028;2022-07-30T04:53:29;91994.22;;;14.34;95.45
63493;BME280;49638;47.526;10.028;2022-07-30T04:56:32;91988.63;;;14.35;95.04
63493;BME280;49638;47.526;10.028;2022-07-30T04:59:34;91990.47;;;14.35;95.09
63493;BME280;49638;47.526;10.028;2022-07-30T05:02:37;92000.09;;;14.41;95.25
63493;BME280;49638;47.526;10.028;2022-07-30T05:05:39;91996.66;;;14.46;95.29
63493;BME280;49638;47.526;10.028;2022-07-30T05:08:40;91995.34;;;14.48;94.93
63493;BME280;49638;47.526;10.028;2022-07-30T05:11:40;91998.50;;;14.45;94.97
63493;BME280;49638;47.526;10.028;2022-07-30T05:14:41;92004.91;;;14.49;95.15
63493;BME280;49638;47.526;10.028;2022-07-30T05:17:41;91999.91;;;14.53;95.11
63493;BME280;49638;47.526;10.028;2022-07-30T05:20:41;91992.91;;;14.47;94.84
63493;BME280;49638;47.526;10.028;2022-07-30T05:23:42;91997.72;;;14.50;95.37
63493;BME280;49638;47.526;10.028;2022-07-30T05:26:42;92009.78;;;14.57;95.62
63493;BME280;49638;47.526;10.028;2022-07-30T05:29:42;92008.94;;;14.57;95.27
63493;BME280;49638;47.526;10.028;2022-07-30T05:32:43;92015.09;;;14.62;95.09
63493;BME280;49638;47.526;10.028;2022-07-30T05:35:43;92012.19;;;14.64;95.12
63493;BME280;49638;47.526;10.028;2022-07-30T05:38:43;92014.84;;;14.64;94.57
63493;BME280;49638;47.526;10.028;2022-07-30T05:41:43;92018.84;;;14.66;94.82
63493;BME280;49638;47.526;10.028;2022-07-30T05:44:44;92019.63;;;14.67;94.83
63493;BME280;49638;47.526;10.028;2022-07-30T05:47:44;92026.28;;;14.70;95.13
63493;BME280;49638;47.526;10.028;2022-07-30T05:50:44;92029.75;;;14.70;94.96
63493;BME280;49638;47.526;10.028;2022-07-30T05:53:45;92036.19;;;14.74;94.93
63493;BME280;49638;47.526;10.028;2022-07-30T05:56:45;92036.69;;;14.76;94.98
63493;BME280;49638;47.526;10.028;2022-07-30T05:59:46;92039.63;;;14.80;95.22
63493;BME280;49638;47.526;10.028;2022-07-30T06:02:46;92043.38;;;14.84;95.14
63493;BME280;49638;47.526;10.028;2022-07-30T06:05:46;92045.50;;;14.87;95.15
63493;BME280;49638;47.526;10.028;2022-07-30T06:08:47;92040.75;;;14.89;95.36
63493;BME280;49638;47.526;10.028;2022-07-30T06:11:49;92053.53;;;14.92;95.04
63493;BME280;49638;47.526;10.028;2022-07-30T06:14:49;92058.84;;;14.97;95.33
63493;BME280;49638;47.526;10.028;2022-07-30T06:17:49;92051.16;;;15.01;95.34
63493;BME280;49638;47.526;10.028;2022-07-30T06:20:51;92063.22;;;15.19;94.96
63493;BME280;49638;47.526;10.028;2022-07-30T06:23:53;92055.25;;;15.29;94.97
63493;BME280;49638;47.526;10.028;2022-07-30T06:26:53;92055.28;;;15.54;94.79
63493;BME280;49638;47.526;10.028;2022-07-30T06:29:53;92053.19;;;15.87;94.66
63493;BME280;49638;47.526;10.028;2022-07-30T06:32:54;92050.72;;;16.47;94.04
63493;BME280;49638;47.526;10.028;2022-07-30T06:35:54;92051.66;;;16.97;91.79
63493;BME280;49638;47.526;10.028;2022-07-30T06:38:54;92051.22;;;17.34;91.01
63493;BME280;49638;47.526;10.028;2022-07-30T06:41:54;92055.72;;;17.44;90.13
63493;BME280;49638;47.526;10.028;2022-07-30T06:44:55;92055.72;;;17.44;89.52
63493;BME280;49638;47.526;10.028;2022-07-30T06:47:58;92057.03;;;17.46;87.67
63493;BME280;49638;47.526;10.028;2022-07-30T06:50:59;92060.75;;;17.45;88.62
63493;BME280;49638;47.526;10.028;2022-07-30T06:53:59;92057.84;;;17.42;88.59
63493;BME280;49638;47.526;10.028;2022-07-30T06:57:00;92061.59;;;17.46;88.64
63493;BME280;49638;47.526;10.028;2022-07-30T07:00:00;92062.94;;;17.43;88.36
63493;BME280;49638;47.526;10.028;2022-07-30T07:03:00;92054.94;;;17.38;88.03
63493;BME280;49638;47.526;10.028;2022-07-30T07:06:01;92068.28;;;17.43;87.53
63493;BME280;49638;47.526;10.028;2022-07-30T07:09:01;92076.25;;;17.48;87.77
63493;BME280;49638;47.526;10.028;2022-07-30T07:12:02;92073.56;;;17.54;87.11
63493;BME280;49638;47.526;10.028;2022-07-30T07:15:02;92068.78;;;17.50;86.92
63493;BME280;49638;47.526;10.028;2022-07-30T07:18:03;92075.44;;;17.53;87.16
63493;BME280;49638;47.526;10.028;2022-07-30T07:21:04;92076.72;;;17.61;86.90
63493;BME280;49638;47.526;10.028;2022-07-30T07:24:05;92072.72;;;17.63;86.71
63493;BME280;49638;47.526;10.028;2022-07-30T07:27:06;92088.44;;;17.65;86.80
63493;BME280;49638;47.526;10.028;2022-07-30T07:30:07;92073.81;;;17.57;86.71
63493;BME280;49638;47.526;10.028;2022-07-30T07:33:07;92088.22;;;17.61;85.90
63493;BME280;49638;47.526;10.028;2022-07-30T07:36:08;92074.91;;;17.56;85.73
63493;BME280;49638;47.526;10.028;2022-07-30T07:39:08;92086.94;;;17.54;85.52
63493;BME280;49638;47.526;10.028;2022-07-30T07:42:08;92069.56;;;17.51;85.04
63493;BME280;49638;47.526;10.028;2022-07-30T07:45:09;92076.19;;;17.59;84.63
63493;BME280;49638;47.526;10.028;2022-07-30T07:48:10;92087.38;;;17.66;84.31
63493;BME280;49638;47.526;10.028;2022-07-30T07:51:11;92088.94;;;17.77;83.25
63493;BME280;49638;47.526;10.028;2022-07-30T07:54:11;92082.50;;;17.83;83.41
63493;BME280;49638;47.526;10.028;2022-07-30T07:57:11;92081.09;;;17.91;83.07
63493;BME280;49638;47.526;10.028;2022-07-30T08:00:13;92082.94;;;17.95;83.29
63493;BME280;49638;47.526;10.028;2022-07-30T08:03:13;92076.78;;;17.95;83.21
63493;BME280;49638;47.526;10.028;2022-07-30T08:06:14;92091.28;;;17.89;82.84
63493;BME280;49638;47.526;10.028;2022-07-30T08:09:14;92091.28;;;17.89;82.71
63493;BME280;49638;47.526;10.028;2022-07-30T08:12:14;92085.44;;;17.82;82.41
63493;BME280;49638;47.526;10.028;2022-07-30T08:15:15;92085.19;;;17.78;82.23
63493;BME280;49638;47.526;10.028;2022-07-30T08:18:15;92085.72;;;17.75;81.85
63493;BME280;49638;47.526;10.028;2022-07-30T08:21:15;92093.75;;;17.75;81.61
63493;BME280;49638;47.526;10.028;2022-07-30T08:24:16;92087.09;;;17.67;81.54
63493;BME280;49638;47.526;10.028;2022-07-30T08:27:16;92083.09;;;17.70;81.42
63493;BME280;49638;47.526;10.028;2022-07-30T08:30:17;92088.44;;;17.70;80.81
63493;BME280;49638;47.526;10.028;2022-07-30T08:33:17;92094.09;;;17.63;80.97
63493;BME280;49638;47.526;10.028;2022-07-30T08:36:17;92090.03;;;17.71;80.82
63493;BME280;49638;47.526;10.028;2022-07-30T08:39:18;92093.69;;;17.90;80.05
63493;BME280;49638;47.526;10.028;2022-07-30T08:42:18;92096.63;;;18.23;79.82
63493;BME280;49638;47.526;10.028;2022-07-30T08:45:18;92091.84;;;18.49;79.00
63493;BME280;49638;47.526;10.028;2022-07-30T08:48:20;92094.13;;;18.66;78.20
63493;BME280;49638;47.526;10.028;2022-07-30T08:51:22;92094.50;;;18.83;77.70
63493;BME280;49638;47.526;10.028;2022-07-30T08:54:22;92088.16;;;18.98;77.08
63493;BME280;49638;47.526;10.028;2022-07-30T08:57:23;92094.69;;;19.16;76.99
63493;BME280;49638;47.526;10.028;2022-07-30T09:00:23;92094.34;;;19.23;76.33
63493;BME280;49638;47.526;10.028;2022-07-30T09:03:24;92090.16;;;19.35;76.49
63493;BME280;49638;47.526;10.028;2022-07-30T09:06:24;92098.56;;;19.48;76.07
63493;BME280;49638;47.526;10.028;2022-07-30T09:09:24;92091.31;;;19.48;75.83
63493;BME280;49638;47.526;10.028;2022-07-30T09:12:42;92097.03;;;19.66;71.01
63493;BME280;49638;47.526;10.028;2022-07-30T09:15:43;92086.47;;;19.74;74.16
63493;BME280;49638;47.526;10.028;2022-07-30T09:18:52;92090.75;;;19.94;73.42
63493;BME280;49638;47.526;10.028;2022-07-30T09:21:57;92090.38;;;20.01;71.02
63493;BME280;49638;47.526;10.028;2022-07-30T09:24:58;92091.81;;;20.12;72.74
63493;BME280;49638;47.526;10.028;2022-07-30T09:27:58;92092.44;;;20.23;71.97
63493;BME280;49638;47.526;10.028;2022-07-30T09:30:59;92090.47;;;20.28;71.66
63493;BME280;49638;47.526;10.028;2022-07-30T09:33:59;92092.69;;;20.40;71.70
63493;BME280;49638;47.526;10.028;2022-07-30T09:37:01;92085.50;;;20.54;70.80
63493;BME280;49638;47.526;10.028;2022-07-30T09:40:13;92089.25;;;20.72;66.95
63493;BME280;49638;47.526;10.028;2022-07-30T09:43:14;92091.22;;;20.81;69.32
63493;BME280;49638;47.526;10.028;2022-07-30T09:46:15;92079.09;;;20.83;68.43
63493;BME280;49638;47.526;10.028;2022-07-30T09:49:24;92081.06;;;20.77;65.27
63493;BME280;49638;47.526;10.028;2022-07-30T09:52:28;92078.19;;;20.74;66.45
63493;BME280;49638;47.526;10.028;2022-07-30T09:55:34;92083.69;;;20.83;65.29
63493;BME280;49638;47.526;10.028;2022-07-30T09:58:38;92089.25;;;20.86;65.71
63493;BME280;49638;47.526;10.028;2022-07-30T10:01:50;92093.34;;;20.97;62.17
63493;BME280;49638;47.526;10.028;2022-07-30T10:04:50;92081.69;;;21.02;65.04
63493;BME280;49638;47.526;10.028;2022-07-30T10:07:55;92078.53;;;21.14;63.98
63493;BME280;49638;47.526;10.028;2022-07-30T10:10:56;92079.53;;;21.18;64.73
63493;BME280;49638;47.526;10.028;2022-07-30T10:13:57;92076.53;;;21.19;65.00
63493;BME280;49638;47.526;10.028;2022-07-30T10:16:59;92083.31;;;21.17;65.04
63493;BME280;49638;47.526;10.028;2022-07-30T10:20:00;92081.63;;;21.07;64.53
63493;BME280;49638;47.526;10.028;2022-07-30T10:23:00;92090.34;;;20.99;64.76
63493;BME280;49638;47.526;10.028;2022-07-30T10:26:01;92087.38;;;20.87;64.76
63493;BME280;49638;47.526;10.028;2022-07-30T10:29:02;92084.75;;;20.82;64.42
63493;BME280;49638;47.526;10.028;2022-07-30T10:32:03;92084.34;;;20.74;64.78
63493;BME280;49638;47.526;10.028;2022-07-30T10:35:04;92090.63;;;20.70;65.58
63493;BME280;49638;47.526;10.028;2022-07-30T10:38:10;92092.31;;;20.66;63.87
63493;BME280;49638;47.526;10.028;2022-07-30T10:47:58;92085.97;;;20.75;64.70
63493;BME280;49638;47.526;10.028;2022-07-30T10:50:59;92087.84;;;20.75;64.99
63493;BME280;49638;47.526;10.028;2022-07-30T10:53:59;92083.16;;;20.67;64.94
63493;BME280;49638;47.526;10.028;2022-07-30T10:57:26;92086.72;;;20.62;60.88
63493;BME280;49638;47.526;10.028;2022-07-30T11:00:28;92084.63;;;20.59;64.79
63493;BME280;49638;47.526;10.028;2022-07-30T11:03:29;92090.22;;;20.63;64.92
63493;BME280;49638;47.526;10.028;2022-07-30T11:06:29;92082.44;;;20.61;64.20
63493;BME280;49638;47.526;10.028;2022-07-30T11:09:40;92096.78;;;20.70;63.72
63493;BME280;49638;47.526;10.028;2022-07-30T11:15:59;92098.69;;;20.84;60.81
63493;BME280;49638;47.526;10.028;2022-07-30T11:19:03;92099.69;;;20.88;61.76
63493;BME280;49638;47.526;10.028;2022-07-30T11:22:37;92108.28;;;20.90;59.68
63493;BME280;49638;47.526;10.028;2022-07-30T11:25:40;92102.59;;;20.91;62.68
63493;BME280;49638;47.526;10.028;2022-07-30T11:28:45;92096.53;;;20.86;61.15
63493;BME280;49638;47.526;10.028;2022-07-30T11:31:45;92094.22;;;20.79;62.30
63493;BME280;49638;47.526;10.028;2022-07-30T11:34:45;92090.63;;;20.70;62.00
63493;BME280;49638;47.526;10.028;2022-07-30T11:38:05;92091.41;;;20.70;58.81
63493;BME280;49638;47.526;10.028;2022-07-30T11:44:26;92082.78;;;20.73;59.06
63493;BME280;49638;47.526;10.028;2022-07-30T11:47:27;92077.69;;;20.72;61.25
63493;BME280;49638;47.526;10.028;2022-07-30T11:50:32;92084.34;;;20.74;59.06
63493;BME280;49638;47.526;10.028;2022-07-30T11:53:33;92085.28;;;20.84;61.03
63493;BME280;49638;47.526;10.028;2022-07-30T11:56:34;92074.00;;;20.82;60.24
63493;BME280;49638;47.526;10.028;2022-07-30T11:59:54;92083.88;;;20.86;54.30
63493;BME280;49638;47.526;10.028;2022-07-30T12:02:55;92086.56;;;20.86;59.78
63493;BME280;49638;47.526;10.028;2022-07-30T12:06:01;92091.63;;;20.88;59.23
63493;BME280;49638;47.526;10.028;2022-07-30T12:09:02;92092.03;;;20.95;59.04
63493;BME280;49638;47.526;10.028;2022-07-30T12:12:19;92079.59;;;20.99;56.95
63493;BME280;49638;47.526;10.028;2022-07-30T12:15:30;92070.75;;;20.98;57.73
63493;BME280;49638;47.526;10.028;2022-07-30T12:18:31;92084.09;;;21.03;59.33
63493;BME280;49638;47.526;10.028;2022-07-30T12:21:32;92075.72;;;21.05;59.77
63493;BME280;49638;47.526;10.028;2022-07-30T12:24:32;92080.63;;;21.03;59.39
63493;BME280;49638;47.526;10.028;2022-07-30T12:27:32;92072.56;;;21.03;58.95
63493;BME280;49638;47.526;10.028;2022-07-30T12:30:33;92069.88;;;21.03;58.66
63493;BME280;49638;47.526;10.028;2022-07-30T12:33:37;92072.75;;;21.07;58.67
63493;BME280;49638;47.526;10.028;2022-07-30T12:36:37;92077.03;;;21.08;58.56
63493;BME280;49638;47.526;10.028;2022-07-30T12:39:37;92075.25;;;21.03;58.70
63493;BME280;49638;47.526;10.028;2022-07-30T12:42:51;92076.53;;;21.06;55.77
63493;BME280;49638;47.526;10.028;2022-07-30T12:45:57;92077.34;;;21.06;56.83
63493;BME280;49638;47.526;10.028;2022-07-30T12:49:02;92083.72;;;21.10;58.67
63493;BME280;49638;47.526;10.028;2022-07-30T12:52:03;92072.97;;;21.10;58.41
63493;BME280;49638;47.526;10.028;2022-07-30T12:55:08;92079.13;;;21.11;57.54
63493;BME280;49638;47.526;10.028;2022-07-30T12:58:09;92073.94;;;21.14;58.01
63493;BME280;49638;47.526;10.028;2022-07-30T13:01:09;92068.25;;;21.16;58.25
63493;BME280;49638;47.526;10.028;2022-07-30T13:04:11;92073.34;;;21.17;58.21
63493;BME280;49638;47.526;10.028;2022-07-30T13:07:11;92076.84;;;21.18;57.45
63493;BME280;49638;47.526;10.028;2022-07-30T13:10:12;92074.94;;;21.18;57.74
63493;BME280;49638;47.526;10.028;2022-07-30T13:13:12;92077.16;;;21.16;57.45
63493;BME280;49638;47.526;10.028;2022-07-30T13:16:14;92068.56;;;21.14;57.06
63493;BME280;49638;47.526;10.028;2022-07-30T13:19:14;92064.97;;;21.05;56.81
63493;BME280;49638;47.526;10.028;2022-07-30T13:22:14;92061.50;;;21.05;56.89
63493;BME280;49638;47.526;10.028;2022-07-30T13:25:15;92060.78;;;20.99;56.47
63493;BME280;49638;47.526;10.028;2022-07-30T13:28:15;92057.22;;;20.90;57.20
63493;BME280;49638;47.526;10.028;2022-07-30T13:31:15;92060.59;;;20.95;57.20
63493;BME280;49638;47.526;10.028;2022-07-30T13:34:17;92058.41;;;21.11;56.98
63493;BME280;49638;47.526;10.028;2022-07-30T13:37:17;92054.41;;;21.22;56.87
63493;BME280;49638;47.526;10.028;2022-07-30T13:40:17;92053.63;;;21.22;56.90
63493;BME280;49638;47.526;10.028;2022-07-30T13:43:18;92054.41;;;21.22;57.41
63493;BME280;49638;47.526;10.028;2022-07-30T13:46:18;92058.22;;;21.21;57.54
63493;BME280;49638;47.526;10.028;2022-07-30T13:49:19;92052.25;;;21.24;57.36
63493;BME280;49638;47.526;10.028;2022-07-30T13:52:19;92054.94;;;21.24;57.13
63493;BME280;49638;47.526;10.028;2022-07-30T13:55:19;92047.66;;;21.25;57.19
63493;BME280;49638;47.526;10.028;2022-07-30T13:58:20;92044.97;;;21.25;57.19
63493;BME280;49638;47.526;10.028;2022-07-30T14:01:20;92051.84;;;21.31;56.98
63493;BME280;49638;47.526;10.028;2022-07-30T14:04:20;92040.88;;;21.27;57.56
63493;BME280;49638;47.526;10.028;2022-07-30T14:07:21;92047.84;;;21.29;57.57
63493;BME280;49638;47.526;10.028;2022-07-30T14:10:21;92045.66;;;21.31;58.15
63493;BME280;49638;47.526;10.028;2022-07-30T14:13:22;92043.56;;;21.27;57.72
63493;BME280;49638;47.526;10.028;2022-07-30T14:16:22;92047.84;;;21.29;57.69
63493;BME280;49638;47.526;10.028;2022-07-30T14:19:22;92036.91;;;21.25;57.67
63493;BME280;49638;47.526;10.028;2022-07-30T14:22:22;92041.69;;;21.28;57.95
63493;BME280;49638;47.526;10.028;2022-07-30T14:25:23;92037.81;;;21.34;58.00
63493;BME280;49638;47.526;10.028;2022-07-30T14:28:23;92034.53;;;21.37;57.79
63493;BME280;49638;47.526;10.028;2022-07-30T14:31:24;92027.56;;;21.36;58.12
63493;BME280;49638;47.526;10.028;2022-07-30T14:34:24;92035.00;;;21.25;57.96
63493;BME280;49638;47.526;10.028;2022-07-30T14:37:25;92042.19;;;21.16;57.93
63493;BME280;49638;47.526;10.028;2022-07-30T14:40:25;92055.22;;;21.09;58.28
63493;BME280;49638;47.526;10.028;2022-07-30T14:43:25;92035.72;;;21.03;58.52
63493;BME280;49638;47.526;10.028;2022-07-30T14:46:26;92036.84;;;21.02;58.96
63493;BME280;49638;47.526;10.028;2022-07-30T14:49:27;92023.09;;;21.04;59.10
63493;BME280;49638;47.526;10.028;2022-07-30T14:52:27;92034.13;;;21.16;59.10
63493;BME280;49638;47.526;10.028;2022-07-30T14:55:27;92021.38;;;21.22;59.43
63493;BME280;49638;47.526;10.028;2022-07-30T14:58:28;92028.94;;;21.34;59.07
63493;BME280;49638;47.526;10.028;2022-07-30T15:01:28;92038.22;;;21.41;58.54
63493;BME280;49638;47.526;10.028;2022-07-30T15:04:28;92032.44;;;21.48;57.89
63493;BME280;49638;47.526;10.028;2022-07-30T15:07:29;92032.91;;;21.50;57.62
63493;BME280;49638;47.526;10.028;2022-07-30T15:10:29;92029.13;;;21.51;56.91
63493;BME280;49638;47.526;10.028;2022-07-30T15:13:29;92041.47;;;21.52;57.17
63493;BME280;49638;47.526;10.028;2022-07-30T15:16:30;92021.72;;;21.57;56.99
63493;BME280;49638;47.526;10.028;2022-07-30T15:19:31;92034.16;;;21.66;56.45
63493;BME280;49638;47.526;10.028;2022-07-30T15:22:31;92028.69;;;21.71;56.61
63493;BME280;49638;47.526;10.028;2022-07-30T15:25:31;92029.47;;;21.72;56.93
63493;BME280;49638;47.526;10.028;2022-07-30T15:28:31;92041.34;;;21.71;56.53
63493;BME280;49638;47.526;10.028;2022-07-30T15:31:32;92028.88;;;21.75;56.79
63493;BME280;49638;47.526;10.028;2022-07-30T15:34:32;92036.63;;;21.77;56.56
63493;BME280;49638;47.526;10.028;2022-07-30T15:37:36;92030.16;;;21.78;56.48
63493;BME280;49638;47.526;10.028;2022-07-30T15:40:36;92024.66;;;21.83;56.28
63493;BME280;49638;47.526;10.028;2022-07-30T15:43:37;92031.00;;;21.87;56.35
63493;BME280;49638;47.526;10.028;2022-07-30T15:46:37;92008.66;;;21.78;55.93
63493;BME280;49638;47.526;10.028;2022-07-30T15:49:38;92035.88;;;21.99;55.71
63493;BME280;49638;47.526;10.028;2022-07-30T15:52:38;92034.41;;;21.92;55.41
63493;BME280;49638;47.526;10.028;2022-07-30T15:55:38;92046.94;;;21.97;55.35
63493;BME280;49638;47.526;10.028;2022-07-30T15:58:39;92023.31;;;21.94;55.30
63493;BME280;49638;47.526;10.028;2022-07-30T16:01:41;92032.41;;;21.98;55.75
63493;BME280;49638;47.526;10.028;2022-07-30T16:04:42;92027.00;;;21.98;55.38
63493;BME280;49638;47.526;10.028;2022-07-30T16:07:43;92028.22;;;21.92;55.16